createdAt,value
2023-05-12T00:00:46.148Z,16.25
2023-05-12T00:01:36.937Z,16.23
2023-05-12T00:02:27.853Z,16.25
2023-05-12T00:03:18.713Z,16.23
2023-05-12T00:04:09.622Z,16.26
2023-05-12T00:05:00.466Z,16.26
2023-05-12T00:05:51.194Z,16.26
2023-05-12T00:06:41.988Z,16.30
2023-05-12T00:07:32.797Z,16.27
2023-05-12T00:08:23.591Z,16.30
2023-05-12T00:09:14.358Z,16.30
2023-05-12T00:10:05.109Z,16.30
2023-05-12T00:10:55.892Z,16.30
2023-05-12T00:11:46.681Z,16.33
2023-05-12T00:12:37.423Z,16.34
2023-05-12T00:13:28.193Z,16.34
2023-05-12T00:14:18.959Z,16.34
2023-05-12T00:15:09.699Z,16.34
2023-05-12T00:16:00.474Z,16.34
2023-05-12T00:16:51.210Z,16.34
2023-05-12T00:17:42.000Z,16.35
2023-05-12T00:18:32.786Z,16.35
2023-05-12T00:19:23.490Z,16.37
2023-05-12T00:20:14.263Z,16.38
2023-05-12T00:21:05.045Z,16.37
2023-05-12T00:21:55.845Z,16.38
2023-05-12T00:22:46.621Z,16.37
2023-05-12T00:23:37.417Z,16.38
2023-05-12T00:24:28.177Z,16.37
2023-05-12T00:25:18.947Z,16.37
2023-05-12T00:26:09.723Z,16.38
2023-05-12T00:27:00.506Z,16.37
2023-05-12T00:27:51.319Z,16.38
2023-05-12T00:28:42.092Z,16.35
2023-05-12T00:29:32.885Z,16.37
2023-05-12T00:30:23.656Z,16.35
2023-05-12T00:31:14.441Z,16.33
2023-05-12T00:32:05.195Z,16.34
2023-05-12T00:32:55.931Z,16.31
2023-05-12T00:33:46.706Z,16.30
2023-05-12T00:34:37.509Z,16.27
2023-05-12T00:35:28.287Z,16.27
2023-05-12T00:36:19.065Z,16.26
2023-05-12T00:37:09.865Z,16.27
2023-05-12T00:38:00.632Z,16.25
2023-05-12T00:38:51.432Z,16.25
2023-05-12T00:39:42.182Z,16.25
2023-05-12T00:40:32.982Z,16.26
2023-05-12T00:41:23.733Z,16.25
2023-05-12T00:42:14.522Z,16.25
2023-05-12T00:43:05.275Z,16.23
2023-05-12T00:43:55.978Z,16.26
2023-05-12T00:44:46.759Z,16.27
2023-05-12T00:45:37.577Z,16.27
2023-05-12T00:46:28.425Z,16.27
2023-05-12T00:47:19.210Z,16.31
2023-05-12T00:48:10.039Z,16.31
2023-05-12T00:49:00.788Z,16.31
2023-05-12T00:49:51.509Z,16.31
2023-05-12T00:50:42.296Z,16.31
2023-05-12T00:51:33.101Z,16.31
2023-05-12T00:52:23.878Z,16.33
2023-05-12T00:53:14.659Z,16.31
2023-05-12T00:54:05.453Z,16.33
2023-05-12T00:54:56.209Z,16.33
2023-05-12T00:55:46.985Z,16.33
2023-05-12T00:56:37.766Z,16.33
2023-05-12T00:57:28.583Z,16.33
2023-05-12T00:58:19.340Z,16.31
2023-05-12T00:59:10.125Z,16.30
2023-05-12T01:00:00.908Z,16.27
2023-05-12T01:00:51.711Z,16.25
2023-05-12T01:01:42.498Z,16.22
2023-05-12T01:02:33.289Z,16.18
2023-05-12T01:03:24.154Z,16.16
2023-05-12T01:04:14.838Z,16.11
2023-05-12T01:05:05.569Z,16.09
2023-05-12T01:05:56.366Z,16.07
2023-05-12T01:06:47.177Z,16.03
2023-05-12T01:07:37.953Z,16.04
2023-05-12T01:08:28.733Z,16.03
2023-05-12T01:09:19.526Z,16.01
2023-05-12T01:10:10.279Z,16.03
2023-05-12T01:11:01.059Z,16.03
2023-05-12T01:11:52.077Z,16.04
2023-05-12T01:12:42.867Z,16.03
2023-05-12T01:13:33.599Z,16.03
2023-05-12T01:14:24.375Z,16.04
2023-05-12T01:15:15.141Z,16.04
2023-05-12T01:16:05.939Z,16.04
2023-05-12T01:16:56.765Z,16.06
2023-05-12T01:17:47.613Z,16.06
2023-05-12T01:18:38.442Z,16.06
2023-05-12T01:19:29.187Z,16.07
2023-05-12T01:20:20.191Z,16.04
2023-05-12T01:21:11.093Z,16.06
2023-05-12T01:22:01.893Z,16.03
2023-05-12T01:22:52.669Z,16.04
2023-05-12T01:23:43.466Z,16.03
2023-05-12T01:24:34.199Z,16.01
2023-05-12T01:25:24.990Z,16.00
2023-05-12T01:26:15.763Z,16.00
2023-05-12T01:27:06.574Z,15.97
2023-05-12T01:27:57.356Z,15.96
2023-05-12T01:28:48.137Z,15.96
2023-05-12T01:29:38.926Z,15.94
2023-05-12T01:30:29.643Z,15.93
2023-05-12T01:31:21.236Z,15.89
2023-05-12T01:32:11.435Z,15.92
2023-05-12T01:33:02.280Z,15.89
2023-05-12T01:33:53.056Z,15.93
2023-05-12T01:34:43.843Z,15.89
2023-05-12T01:35:34.636Z,15.93
2023-05-12T01:36:25.447Z,15.92
2023-05-12T01:37:16.210Z,15.92
2023-05-12T01:38:07.000Z,15.93
2023-05-12T01:38:57.790Z,15.94
2023-05-12T01:39:48.511Z,15.96
2023-05-12T01:40:39.221Z,15.93
2023-05-12T01:41:30.021Z,15.93
2023-05-12T01:42:20.867Z,15.93
2023-05-12T01:43:11.612Z,15.89
2023-05-12T01:44:02.408Z,15.92
2023-05-12T01:44:53.185Z,15.88
2023-05-12T01:45:43.970Z,15.86
2023-05-12T01:46:34.756Z,15.88
2023-05-12T01:47:25.519Z,15.84
2023-05-12T01:48:16.282Z,15.86
2023-05-12T01:49:06.949Z,15.88
2023-05-12T01:49:57.838Z,15.86
2023-05-12T01:50:48.581Z,15.86
2023-05-12T01:51:39.346Z,15.88
2023-05-12T01:52:30.081Z,15.88
2023-05-12T01:53:20.863Z,15.88
2023-05-12T01:54:11.576Z,15.89
2023-05-12T01:55:02.339Z,15.89
2023-05-12T01:55:53.093Z,15.88
2023-05-12T01:56:43.877Z,15.88
2023-05-12T01:57:34.642Z,15.89
2023-05-12T01:58:25.427Z,15.89
2023-05-12T01:59:16.236Z,15.92
2023-05-12T02:00:07.055Z,15.92
2023-05-12T02:00:57.831Z,15.92
2023-05-12T02:01:48.641Z,15.93
2023-05-12T02:02:41.460Z,15.92
2023-05-12T02:03:30.280Z,15.92
2023-05-12T02:04:21.010Z,15.92
2023-05-12T02:05:11.796Z,15.92
2023-05-12T02:06:02.578Z,15.92
2023-05-12T02:06:53.307Z,15.93
2023-05-12T02:07:44.111Z,15.93
2023-05-12T02:08:35.378Z,15.93
2023-05-12T02:09:26.168Z,15.93
2023-05-12T02:10:17.085Z,15.93
2023-05-12T02:11:07.843Z,15.93
2023-05-12T02:11:58.668Z,15.92
2023-05-12T02:12:49.459Z,15.93
2023-05-12T02:13:40.189Z,15.92
2023-05-12T02:14:31.577Z,15.93
2023-05-12T02:15:22.269Z,15.96
2023-05-12T02:16:13.134Z,15.93
2023-05-12T02:17:03.712Z,15.93
2023-05-12T02:17:54.506Z,15.94
2023-05-12T02:18:45.196Z,15.92
2023-05-12T02:19:36.476Z,15.93
2023-05-12T02:20:27.622Z,15.93
2023-05-12T02:21:18.768Z,15.92
2023-05-12T02:22:09.976Z,15.93
2023-05-12T02:23:01.188Z,15.92
2023-05-12T02:23:51.990Z,15.93
2023-05-12T02:24:42.931Z,15.93
2023-05-12T02:25:34.237Z,15.93
2023-05-12T02:26:25.251Z,15.92
2023-05-12T02:27:16.287Z,15.92
2023-05-12T02:28:07.406Z,15.92
2023-05-12T02:28:58.690Z,15.94
2023-05-12T02:29:49.626Z,15.92
2023-05-12T02:30:40.720Z,15.93
2023-05-12T02:31:31.793Z,15.93
2023-05-12T02:32:23.092Z,15.92
2023-05-12T02:33:13.832Z,15.92
2023-05-12T02:34:06.455Z,15.92
2023-05-12T02:34:55.504Z,15.92
2023-05-12T02:35:46.264Z,15.89
2023-05-12T02:36:37.036Z,15.92
2023-05-12T02:37:27.827Z,15.92
2023-05-12T02:38:18.580Z,15.93
2023-05-12T02:39:09.378Z,15.93
2023-05-12T02:40:00.160Z,15.92
2023-05-12T02:40:50.933Z,15.93
2023-05-12T02:41:41.684Z,15.93
2023-05-12T02:42:32.447Z,15.93
2023-05-12T02:43:23.221Z,15.94
2023-05-12T02:44:14.023Z,15.93
2023-05-12T02:45:04.783Z,15.92
2023-05-12T02:45:55.624Z,15.92
2023-05-12T02:46:46.341Z,15.89
2023-05-12T02:47:37.131Z,15.89
2023-05-12T02:48:27.881Z,15.92
2023-05-12T02:49:18.675Z,15.89
2023-05-12T02:50:09.418Z,15.92
2023-05-12T02:51:00.163Z,15.89
2023-05-12T02:51:50.908Z,15.88
2023-05-12T02:52:41.790Z,15.89
2023-05-12T02:53:32.650Z,15.89
2023-05-12T02:54:23.522Z,15.88
2023-05-12T02:55:14.405Z,15.88
2023-05-12T02:56:05.292Z,15.89
2023-05-12T02:56:56.147Z,15.89
2023-05-12T02:57:46.949Z,15.88
2023-05-12T02:58:37.749Z,15.88
2023-05-12T02:59:28.524Z,15.86
2023-05-12T03:00:19.471Z,15.86
2023-05-12T03:01:11.541Z,15.85
2023-05-12T03:02:01.403Z,15.86
2023-05-12T03:02:52.060Z,15.86
2023-05-12T03:03:43.278Z,15.85
2023-05-12T03:04:33.654Z,15.86
2023-05-12T03:05:24.450Z,15.86
2023-05-12T03:06:15.531Z,15.86
2023-05-12T03:07:06.368Z,15.88
2023-05-12T03:07:57.201Z,15.88
2023-05-12T03:08:48.059Z,15.88
2023-05-12T03:09:38.936Z,15.88
2023-05-12T03:10:29.818Z,15.86
2023-05-12T03:11:20.702Z,15.88
2023-05-12T03:12:11.545Z,15.86
2023-05-12T03:13:02.419Z,15.86
2023-05-12T03:13:53.296Z,15.85
2023-05-12T03:14:44.193Z,15.88
2023-05-12T03:15:35.082Z,15.85
2023-05-12T03:16:25.980Z,15.86
2023-05-12T03:17:16.847Z,15.86
2023-05-12T03:18:07.789Z,15.86
2023-05-12T03:18:58.633Z,15.88
2023-05-12T03:19:49.454Z,15.86
2023-05-12T03:20:40.342Z,15.85
2023-05-12T03:21:31.196Z,15.86
2023-05-12T03:22:22.085Z,15.85
2023-05-12T03:23:12.935Z,15.85
2023-05-12T03:24:03.804Z,15.85
2023-05-12T03:24:54.673Z,15.84
2023-05-12T03:25:45.548Z,15.85
2023-05-12T03:26:36.439Z,15.84
2023-05-12T03:27:27.280Z,15.84
2023-05-12T03:28:18.161Z,15.84
2023-05-12T03:29:09.048Z,15.82
2023-05-12T03:29:59.933Z,15.84
2023-05-12T03:30:50.804Z,15.84
2023-05-12T03:31:41.765Z,15.82
2023-05-12T03:32:32.633Z,15.82
2023-05-12T03:33:23.518Z,15.84
2023-05-12T03:34:14.417Z,15.82
2023-05-12T03:35:05.282Z,15.82
2023-05-12T03:35:56.169Z,15.85
2023-05-12T03:36:47.056Z,15.82
2023-05-12T03:37:37.934Z,15.84
2023-05-12T03:38:28.814Z,15.82
2023-05-12T03:39:19.695Z,15.81
2023-05-12T03:40:10.584Z,15.79
2023-05-12T03:41:01.457Z,15.81
2023-05-12T03:41:52.356Z,15.81
2023-05-12T03:42:43.216Z,15.79
2023-05-12T03:43:34.096Z,15.81
2023-05-12T03:44:24.987Z,15.81
2023-05-12T03:45:15.854Z,15.79
2023-05-12T03:46:06.798Z,15.78
2023-05-12T03:46:57.682Z,15.79
2023-05-12T03:47:48.695Z,15.78
2023-05-12T03:48:39.583Z,15.79
2023-05-12T03:49:30.521Z,15.81
2023-05-12T03:50:21.594Z,15.79
2023-05-12T03:51:12.549Z,15.81
2023-05-12T03:52:03.457Z,15.79
2023-05-12T03:52:54.325Z,15.81
2023-05-12T03:53:45.247Z,15.81
2023-05-12T03:54:37.930Z,15.81
2023-05-12T03:55:27.009Z,15.79
2023-05-12T03:56:17.851Z,15.81
2023-05-12T03:57:08.751Z,15.82
2023-05-12T03:57:59.633Z,15.82
2023-05-12T03:58:50.512Z,15.81
2023-05-12T03:59:41.399Z,15.82
2023-05-12T04:00:32.260Z,15.82
2023-05-12T04:01:23.134Z,15.82
2023-05-12T04:02:14.045Z,15.81
2023-05-12T04:03:04.966Z,15.81
2023-05-12T04:03:55.837Z,15.82
2023-05-12T04:04:46.729Z,15.82
2023-05-12T04:05:37.602Z,15.84
2023-05-12T04:06:28.484Z,15.82
2023-05-12T04:07:19.370Z,15.84
2023-05-12T04:08:10.270Z,15.84
2023-05-12T04:09:01.144Z,15.82
2023-05-12T04:09:52.064Z,15.82
2023-05-12T04:10:42.924Z,15.84
2023-05-12T04:11:33.811Z,15.84
2023-05-12T04:12:24.716Z,15.84
2023-05-12T04:13:15.839Z,15.84
2023-05-12T04:14:06.720Z,15.85
2023-05-12T04:14:57.591Z,15.85
2023-05-12T04:15:48.467Z,15.86
2023-05-12T04:16:39.373Z,15.86
2023-05-12T04:17:30.277Z,15.85
2023-05-12T04:18:21.158Z,15.88
2023-05-12T04:19:12.096Z,15.88
2023-05-12T04:20:02.929Z,15.86
2023-05-12T04:20:53.820Z,15.85
2023-05-12T04:21:44.684Z,15.86
2023-05-12T04:22:35.574Z,15.86
2023-05-12T04:23:26.462Z,15.86
2023-05-12T04:24:17.317Z,15.86
2023-05-12T04:25:08.217Z,15.89
2023-05-12T04:25:59.105Z,15.88
2023-05-12T04:26:50.022Z,15.86
2023-05-12T04:27:40.957Z,15.89
2023-05-12T04:28:31.831Z,15.88
2023-05-12T04:29:22.722Z,15.88
2023-05-12T04:30:13.604Z,15.89
2023-05-12T04:31:04.509Z,15.89
2023-05-12T04:31:55.414Z,15.89
2023-05-12T04:32:46.303Z,15.89
2023-05-12T04:33:37.180Z,15.92
2023-05-12T04:34:28.035Z,15.92
2023-05-12T04:35:18.929Z,15.92
2023-05-12T04:36:09.818Z,15.92
2023-05-12T04:37:00.697Z,15.93
2023-05-12T04:37:51.596Z,15.93
2023-05-12T04:38:42.479Z,15.94
2023-05-12T04:39:33.126Z,15.94
2023-05-12T04:40:23.817Z,15.94
2023-05-12T04:41:15.602Z,15.94
2023-05-12T04:42:05.893Z,15.94
2023-05-12T04:42:56.806Z,15.94
2023-05-12T04:44:38.437Z,15.97
2023-05-12T04:45:29.320Z,15.99
2023-05-12T04:46:20.277Z,15.99
2023-05-12T04:47:11.137Z,16.01
2023-05-12T04:48:02.068Z,16.01
2023-05-12T04:48:52.949Z,16.03
2023-05-12T04:49:43.843Z,16.04
2023-05-12T04:50:34.721Z,16.03
2023-05-12T04:51:25.612Z,16.04
2023-05-12T04:52:16.498Z,16.06
2023-05-12T04:53:07.401Z,16.07
2023-05-12T04:53:58.302Z,16.09
2023-05-12T04:54:49.184Z,16.09
2023-05-12T04:55:40.070Z,16.11
2023-05-12T04:56:30.955Z,16.12
2023-05-12T04:57:21.872Z,16.09
2023-05-12T04:58:12.803Z,16.14
2023-05-12T04:59:03.685Z,16.12
2023-05-12T04:59:54.595Z,16.12
2023-05-12T05:00:45.486Z,16.14
2023-05-12T05:01:36.417Z,16.16
2023-05-12T05:02:27.345Z,16.14
2023-05-12T05:03:18.288Z,16.16
2023-05-12T05:04:09.176Z,16.15
2023-05-12T05:05:00.142Z,16.15
2023-05-12T05:05:51.014Z,16.16
2023-05-12T05:06:41.924Z,16.16
2023-05-12T05:07:32.868Z,16.18
2023-05-12T05:08:23.759Z,16.18
2023-05-12T05:09:14.674Z,16.18
2023-05-12T05:10:05.583Z,16.20
2023-05-12T05:10:56.479Z,16.22
2023-05-12T05:11:47.393Z,16.22
2023-05-12T05:12:38.308Z,16.20
2023-05-12T05:13:29.276Z,16.22
2023-05-12T05:14:20.108Z,16.23
2023-05-12T05:15:11.017Z,16.25
2023-05-12T05:16:01.963Z,16.25
2023-05-12T05:16:52.834Z,16.23
2023-05-12T05:17:44.010Z,16.25
2023-05-12T05:18:34.890Z,16.26
2023-05-12T05:19:39.181Z,16.26
2023-05-12T05:20:17.779Z,16.26
2023-05-12T05:21:07.499Z,16.25
2023-05-12T05:21:58.368Z,16.27
2023-05-12T05:22:49.297Z,16.30
2023-05-12T05:23:40.201Z,16.30
2023-05-12T05:24:31.122Z,16.30
2023-05-12T05:25:22.120Z,16.31
2023-05-12T05:26:12.966Z,16.33
2023-05-12T05:27:03.886Z,16.31
2023-05-12T05:27:54.792Z,16.35
2023-05-12T05:28:45.830Z,16.35
2023-05-12T05:29:36.662Z,16.37
2023-05-12T05:30:27.597Z,16.38
2023-05-12T05:31:18.528Z,16.38
2023-05-12T05:32:09.417Z,16.40
2023-05-12T05:33:00.372Z,16.42
2023-05-12T05:33:51.249Z,16.42
2023-05-12T05:34:42.188Z,16.44
2023-05-12T05:35:33.056Z,16.45
2023-05-12T05:36:23.956Z,16.48
2023-05-12T05:37:14.862Z,16.50
2023-05-12T05:38:05.797Z,16.49
2023-05-12T05:38:56.699Z,16.53
2023-05-12T05:39:47.610Z,16.56
2023-05-12T05:40:51.590Z,16.55
2023-05-12T05:41:30.455Z,16.56
2023-05-12T05:42:20.149Z,16.58
2023-05-12T05:43:11.048Z,16.59
2023-05-12T05:44:01.967Z,16.63
2023-05-12T05:44:52.862Z,16.63
2023-05-12T05:45:43.767Z,16.67
2023-05-12T05:46:34.731Z,16.65
2023-05-12T05:47:25.605Z,16.67
2023-05-12T05:48:16.508Z,16.70
2023-05-12T05:49:07.394Z,16.70
2023-05-12T05:49:58.292Z,16.71
2023-05-12T05:50:49.194Z,16.73
2023-05-12T05:51:40.100Z,16.75
2023-05-12T05:52:30.994Z,16.77
2023-05-12T05:53:22.676Z,16.78
2023-05-12T05:54:13.126Z,16.81
2023-05-12T05:55:04.003Z,16.80
2023-05-12T05:55:54.923Z,16.81
2023-05-12T05:56:45.822Z,16.83
2023-05-12T05:57:36.745Z,16.86
2023-05-12T05:58:27.653Z,16.86
2023-05-12T05:59:18.642Z,16.88
2023-05-12T06:00:09.497Z,16.89
2023-05-12T06:01:00.407Z,16.90
2023-05-12T06:01:51.338Z,16.93
2023-05-12T06:02:42.484Z,16.92
2023-05-12T06:03:33.435Z,16.93
2023-05-12T06:04:24.384Z,16.93
2023-05-12T06:05:15.244Z,16.95
2023-05-12T06:06:06.158Z,16.95
2023-05-12T06:06:57.050Z,16.95
2023-05-12T06:07:47.965Z,16.95
2023-05-12T06:08:38.860Z,16.95
2023-05-12T06:09:29.800Z,16.93
2023-05-12T06:10:20.838Z,16.92
2023-05-12T06:11:11.863Z,16.93
2023-05-12T06:12:02.748Z,16.92
2023-05-12T06:12:53.679Z,16.93
2023-05-12T06:13:44.570Z,16.93
2023-05-12T06:14:35.491Z,16.95
2023-05-12T06:15:26.369Z,16.96
2023-05-12T06:16:17.330Z,16.95
2023-05-12T06:17:08.192Z,16.96
2023-05-12T06:17:59.158Z,16.96
2023-05-12T06:18:50.069Z,17.00
2023-05-12T06:19:40.943Z,16.98
2023-05-12T06:20:31.859Z,16.99
2023-05-12T06:21:22.773Z,16.99
2023-05-12T06:22:13.668Z,16.99
2023-05-12T06:23:04.600Z,17.03
2023-05-12T06:23:55.515Z,17.00
2023-05-12T06:24:46.428Z,17.00
2023-05-12T06:25:37.333Z,17.03
2023-05-12T06:26:28.242Z,17.03
2023-05-12T06:27:19.145Z,17.04
2023-05-12T06:28:10.072Z,17.03
2023-05-12T06:29:00.982Z,17.04
2023-05-12T06:29:52.024Z,17.04
2023-05-12T06:30:42.861Z,17.04
2023-05-12T06:31:33.879Z,17.04
2023-05-12T06:32:24.757Z,17.07
2023-05-12T06:33:15.677Z,17.07
2023-05-12T06:34:06.591Z,17.07
2023-05-12T06:34:57.495Z,17.07
2023-05-12T06:35:48.451Z,17.06
2023-05-12T06:36:39.330Z,17.07
2023-05-12T06:37:30.238Z,17.10
2023-05-12T06:38:21.155Z,17.08
2023-05-12T06:39:12.069Z,17.10
2023-05-12T06:40:02.995Z,17.11
2023-05-12T06:40:53.884Z,17.13
2023-05-12T06:41:44.791Z,17.15
2023-05-12T06:42:35.709Z,17.14
2023-05-12T06:43:26.659Z,17.17
2023-05-12T06:44:17.527Z,17.18
2023-05-12T06:45:08.453Z,17.18
2023-05-12T06:45:59.390Z,17.20
2023-05-12T06:46:50.248Z,17.22
2023-05-12T06:47:41.185Z,17.25
2023-05-12T06:48:32.070Z,17.28
2023-05-12T06:49:22.983Z,17.28
2023-05-12T06:50:13.892Z,17.30
2023-05-12T06:51:04.805Z,17.32
2023-05-12T06:51:55.697Z,17.32
2023-05-12T06:52:46.607Z,17.33
2023-05-12T06:53:37.519Z,17.35
2023-05-12T06:54:28.439Z,17.40
2023-05-12T06:55:19.641Z,17.41
2023-05-12T06:56:10.140Z,17.41
2023-05-12T06:57:01.068Z,17.47
2023-05-12T06:57:51.959Z,17.47
2023-05-12T06:58:42.878Z,17.50
2023-05-12T06:59:33.786Z,17.51
2023-05-12T07:00:24.772Z,17.54
2023-05-12T07:01:15.701Z,17.59
2023-05-12T07:02:06.551Z,17.63
2023-05-12T07:02:57.477Z,17.63
2023-05-12T07:03:48.402Z,17.66
2023-05-12T07:04:39.318Z,17.66
2023-05-12T07:05:30.234Z,17.67
2023-05-12T07:06:21.132Z,17.70
2023-05-12T07:07:12.008Z,17.71
2023-05-12T07:08:02.916Z,17.74
2023-05-12T07:08:53.817Z,17.74
2023-05-12T07:09:44.722Z,17.76
2023-05-12T07:10:35.630Z,17.78
2023-05-12T07:11:26.554Z,17.82
2023-05-12T07:12:17.459Z,17.84
2023-05-12T07:13:08.394Z,17.81
2023-05-12T07:13:59.308Z,17.87
2023-05-12T07:14:50.255Z,17.88
2023-05-12T07:15:41.221Z,17.87
2023-05-12T07:16:32.129Z,17.91
2023-05-12T07:17:24.654Z,17.94
2023-05-12T07:18:20.822Z,17.99
2023-05-12T07:19:04.438Z,18.00
2023-05-12T07:19:55.304Z,18.02
2023-05-12T07:20:46.262Z,18.03
2023-05-12T07:21:37.165Z,18.03
2023-05-12T07:22:28.070Z,18.06
2023-05-12T07:23:18.983Z,18.09
2023-05-12T07:24:09.905Z,18.10
2023-05-12T07:25:00.850Z,18.13
2023-05-12T07:25:51.721Z,18.18
2023-05-12T07:26:42.646Z,18.21
2023-05-12T07:27:33.562Z,18.24
2023-05-12T07:28:24.486Z,18.29
2023-05-12T07:29:15.403Z,18.29
2023-05-12T07:30:06.317Z,18.36
2023-05-12T07:30:57.288Z,18.39
2023-05-12T07:31:48.219Z,18.40
2023-05-12T07:32:39.169Z,18.43
2023-05-12T07:33:30.045Z,18.43
2023-05-12T07:34:20.961Z,18.47
2023-05-12T07:35:11.871Z,18.52
2023-05-12T07:36:02.794Z,18.54
2023-05-12T07:36:53.705Z,18.58
2023-05-12T07:37:44.638Z,18.59
2023-05-12T07:38:35.532Z,18.62
2023-05-12T07:39:26.457Z,18.64
2023-05-12T07:40:17.370Z,18.67
2023-05-12T07:41:08.303Z,18.70
2023-05-12T07:41:59.222Z,18.74
2023-05-12T07:42:50.149Z,18.79
2023-05-12T07:43:41.093Z,18.84
2023-05-12T07:44:32.025Z,18.86
2023-05-12T07:45:22.977Z,18.87
2023-05-12T07:46:13.985Z,18.91
2023-05-12T07:47:04.853Z,18.91
2023-05-12T07:47:55.818Z,18.98
2023-05-12T07:48:46.681Z,18.98
2023-05-12T07:49:37.604Z,18.99
2023-05-12T07:50:28.508Z,19.01
2023-05-12T07:51:19.424Z,19.02
2023-05-12T07:52:10.349Z,19.02
2023-05-12T07:53:01.270Z,19.05
2023-05-12T07:53:52.184Z,19.08
2023-05-12T07:54:43.101Z,19.10
2023-05-12T07:55:34.006Z,19.10
2023-05-12T07:56:24.936Z,19.13
2023-05-12T07:57:15.843Z,19.11
2023-05-12T07:58:06.768Z,19.13
2023-05-12T07:58:57.709Z,19.13
2023-05-12T07:59:48.578Z,19.14
2023-05-12T08:00:39.485Z,19.14
2023-05-12T08:01:30.425Z,19.18
2023-05-12T08:02:21.409Z,19.20
2023-05-12T08:03:12.395Z,19.18
2023-05-12T08:04:03.499Z,19.23
2023-05-12T08:04:54.398Z,19.23
2023-05-12T08:05:45.309Z,19.24
2023-05-12T08:06:36.223Z,19.25
2023-05-12T08:07:27.145Z,19.28
2023-05-12T08:08:18.056Z,19.28
2023-05-12T08:09:08.977Z,19.29
2023-05-12T08:09:59.885Z,19.31
2023-05-12T08:10:50.787Z,19.31
2023-05-12T08:11:43.215Z,19.31
2023-05-12T08:12:32.466Z,19.32
2023-05-12T08:13:23.390Z,19.35
2023-05-12T08:14:14.353Z,19.35
2023-05-12T08:15:05.261Z,19.39
2023-05-12T08:15:56.166Z,19.38
2023-05-12T08:16:47.212Z,19.40
2023-05-12T08:17:38.097Z,19.42
2023-05-12T08:18:29.000Z,19.46
2023-05-12T08:19:19.906Z,19.50
2023-05-12T08:20:10.863Z,19.51
2023-05-12T08:21:01.740Z,19.54
2023-05-12T08:21:52.651Z,19.57
2023-05-12T08:22:43.573Z,19.57
2023-05-12T08:23:34.486Z,19.57
2023-05-12T08:24:25.396Z,19.55
2023-05-12T08:25:16.322Z,19.60
2023-05-12T08:26:07.229Z,19.60
2023-05-12T08:26:58.155Z,19.60
2023-05-12T08:27:49.066Z,19.63
2023-05-12T08:28:40.043Z,19.63
2023-05-12T08:29:30.908Z,19.66
2023-05-12T08:30:21.831Z,19.70
2023-05-12T08:31:12.842Z,19.72
2023-05-12T08:32:03.964Z,19.76
2023-05-12T08:32:54.853Z,19.78
2023-05-12T08:33:46.353Z,19.83
2023-05-12T08:34:36.702Z,19.83
2023-05-12T08:35:27.614Z,19.88
2023-05-12T08:36:18.526Z,19.88
2023-05-12T08:37:09.470Z,19.94
2023-05-12T08:38:00.407Z,19.95
2023-05-12T08:38:51.298Z,19.98
2023-05-12T08:39:42.234Z,20.03
2023-05-12T08:40:33.160Z,20.05
2023-05-12T08:41:24.073Z,20.08
2023-05-12T08:42:15.013Z,20.10
2023-05-12T08:43:05.915Z,20.13
2023-05-12T08:43:56.836Z,20.16
2023-05-12T08:44:47.748Z,20.16
2023-05-12T08:45:38.669Z,20.20
2023-05-12T08:46:29.619Z,20.18
2023-05-12T08:47:20.561Z,20.24
2023-05-12T08:48:11.484Z,20.25
2023-05-12T08:49:02.490Z,20.27
2023-05-12T08:49:53.395Z,20.31
2023-05-12T08:50:44.315Z,20.33
2023-05-12T08:51:35.226Z,20.35
2023-05-12T08:52:26.151Z,20.42
2023-05-12T08:53:17.075Z,20.42
2023-05-12T08:54:08.001Z,20.46
2023-05-12T08:55:00.050Z,20.50
2023-05-12T08:57:08.223Z,20.51
2023-05-12T08:57:31.902Z,20.58
2023-05-12T08:58:33.909Z,20.62
2023-05-12T08:59:14.725Z,20.64
2023-05-12T09:00:04.456Z,20.68
2023-05-12T09:00:55.404Z,20.69
2023-05-12T09:01:46.324Z,20.76
2023-05-12T09:02:48.723Z,20.79
2023-05-12T09:03:29.198Z,20.84
2023-05-12T09:04:18.913Z,20.86
2023-05-12T09:05:09.784Z,20.87
2023-05-12T09:06:00.701Z,20.93
2023-05-12T09:06:53.581Z,20.98
2023-05-12T09:07:42.835Z,20.96
2023-05-12T09:08:33.765Z,20.99
2023-05-12T09:09:24.661Z,21.04
2023-05-12T09:10:29.838Z,21.08
2023-05-12T09:11:06.482Z,21.13
2023-05-12T09:11:57.411Z,21.16
2023-05-12T09:12:48.328Z,21.20
2023-05-12T09:13:39.250Z,21.23
2023-05-12T09:14:30.197Z,21.26
2023-05-12T09:15:21.335Z,21.29
2023-05-12T09:16:11.813Z,21.32
2023-05-12T09:17:02.709Z,21.36
2023-05-12T09:17:53.716Z,21.38
2023-05-12T09:18:44.617Z,21.39
2023-05-12T09:19:35.526Z,21.45
2023-05-12T09:20:31.478Z,21.51
2023-05-12T09:21:18.335Z,21.57
2023-05-12T09:22:08.023Z,21.59
2023-05-12T09:22:58.986Z,21.66
2023-05-12T09:23:49.878Z,21.67
2023-05-12T09:24:40.871Z,21.74
2023-05-12T09:25:31.722Z,21.78
2023-05-12T09:26:23.208Z,21.83
2023-05-12T09:27:13.506Z,21.91
2023-05-12T09:28:04.432Z,21.95
2023-05-12T09:28:55.350Z,21.97
2023-05-12T09:29:58.025Z,21.99
2023-05-12T09:30:38.234Z,22.02
2023-05-12T09:31:28.000Z,22.07
2023-05-12T09:32:18.889Z,22.06
2023-05-12T09:33:09.899Z,22.09
2023-05-12T09:34:00.752Z,22.09
2023-05-12T09:34:51.693Z,22.12
2023-05-12T09:35:42.592Z,22.14
2023-05-12T09:36:33.286Z,22.14
2023-05-12T09:37:24.213Z,22.17
2023-05-12T09:38:15.170Z,22.19
2023-05-12T09:39:06.074Z,22.20
2023-05-12T09:39:57.000Z,22.25
2023-05-12T09:40:47.914Z,22.28
2023-05-12T09:41:38.841Z,22.29
2023-05-12T09:42:29.752Z,22.34
2023-05-12T09:43:20.682Z,22.41
2023-05-12T09:44:11.595Z,22.44
2023-05-12T09:45:02.518Z,22.49
2023-05-12T09:45:53.457Z,22.53
2023-05-12T09:46:44.353Z,22.60
2023-05-12T09:47:35.288Z,22.69
2023-05-12T09:48:27.580Z,22.69
2023-05-12T09:49:17.281Z,22.75
2023-05-12T09:50:08.231Z,22.75
2023-05-12T09:50:59.129Z,22.82
2023-05-12T09:51:50.058Z,22.82
2023-05-12T09:52:41.118Z,22.87
2023-05-12T09:53:31.980Z,22.97
2023-05-12T09:54:22.934Z,22.99
2023-05-12T09:55:13.861Z,23.02
2023-05-12T09:56:04.782Z,23.05
2023-05-12T09:56:55.707Z,23.05
2023-05-12T09:57:46.830Z,23.02
2023-05-12T09:58:37.783Z,23.07
2023-05-12T09:59:28.767Z,23.05
2023-05-12T10:00:33.147Z,23.08
2023-05-12T10:02:01.354Z,23.07
2023-05-12T10:02:52.354Z,23.11
2023-05-12T10:03:43.324Z,23.12
2023-05-12T10:04:34.225Z,23.15
2023-05-12T10:05:25.147Z,23.20
2023-05-12T10:06:16.080Z,23.24
2023-05-12T10:07:07.014Z,23.32
2023-05-12T10:07:58.036Z,23.34
2023-05-12T10:08:48.983Z,23.38
2023-05-12T10:09:39.997Z,23.40
2023-05-12T10:10:30.922Z,23.43
2023-05-12T10:11:21.886Z,23.45
2023-05-12T10:12:12.818Z,23.46
2023-05-12T10:13:03.805Z,23.50
2023-05-12T10:13:54.732Z,23.57
2023-05-12T10:14:45.794Z,23.62
2023-05-12T10:15:36.699Z,23.67
2023-05-12T10:16:27.675Z,23.67
2023-05-12T10:17:18.581Z,23.70
2023-05-12T10:18:09.648Z,23.70
2023-05-12T10:19:00.649Z,23.70
2023-05-12T10:19:51.518Z,23.71
2023-05-12T10:20:42.532Z,23.65
2023-05-12T10:21:33.467Z,23.67
2023-05-12T10:22:24.425Z,23.70
2023-05-12T10:23:15.369Z,23.70
2023-05-12T10:24:06.306Z,23.70
2023-05-12T10:24:57.242Z,23.76
2023-05-12T10:25:48.212Z,23.80
2023-05-12T10:26:41.749Z,23.86
2023-05-12T10:27:30.293Z,23.90
2023-05-12T10:28:21.227Z,24.00
2023-05-12T10:29:12.182Z,24.02
2023-05-12T10:30:03.114Z,24.05
2023-05-12T10:30:54.105Z,24.10
2023-05-12T10:31:45.269Z,24.10
2023-05-12T10:32:35.810Z,24.16
2023-05-12T10:33:26.710Z,24.19
2023-05-12T10:34:17.777Z,24.14
2023-05-12T10:35:08.673Z,24.14
2023-05-12T10:35:59.648Z,24.12
2023-05-12T10:36:50.574Z,24.14
2023-05-12T10:37:41.545Z,24.17
2023-05-12T10:38:32.506Z,24.23
2023-05-12T10:39:23.531Z,24.23
2023-05-12T10:40:14.464Z,24.26
2023-05-12T10:41:05.418Z,24.31
2023-05-12T10:41:56.345Z,24.34
2023-05-12T10:42:47.294Z,24.35
2023-05-12T10:43:38.234Z,24.37
2023-05-12T10:44:29.291Z,24.44
2023-05-12T10:45:20.558Z,24.49
2023-05-12T10:46:11.111Z,24.52
2023-05-12T10:47:02.007Z,24.56
2023-05-12T10:47:53.057Z,24.59
2023-05-12T10:48:43.993Z,24.60
2023-05-12T10:49:35.022Z,24.68
2023-05-12T10:50:25.879Z,24.71
2023-05-12T10:51:16.851Z,24.77
2023-05-12T10:52:07.818Z,24.79
2023-05-12T10:52:58.842Z,24.83
2023-05-12T10:53:52.756Z,24.87
2023-05-12T10:54:40.723Z,24.90
2023-05-12T10:55:31.819Z,24.87
2023-05-12T10:56:23.166Z,24.91
2023-05-12T10:57:17.021Z,24.95
2023-05-12T10:58:05.191Z,25.01